createdAt,value
2017-09-06T00:01:08.383Z,69.10
2017-09-06T00:03:35.312Z,69.10
2017-09-06T00:06:02.200Z,69.40
2017-09-06T00:08:29.987Z,69.70
2017-09-06T00:10:56.869Z,69.80
2017-09-06T00:13:23.739Z,70.00
2017-09-06T00:15:50.716Z,69.90
2017-09-06T00:18:17.601Z,69.90
2017-09-06T00:20:44.505Z,70.00
2017-09-06T00:23:11.772Z,70.00
2017-09-06T00:25:38.668Z,70.10
2017-09-06T00:28:05.624Z,70.30
2017-09-06T00:30:32.600Z,70.10
2017-09-06T00:32:59.544Z,70.20
2017-09-06T00:35:27.420Z,70.60
2017-09-06T00:37:54.351Z,71.40
2017-09-06T00:40:22.051Z,70.80
2017-09-06T00:42:48.944Z,70.80
2017-09-06T00:45:15.935Z,70.70
2017-09-06T00:47:42.842Z,70.70
2017-09-06T00:50:10.476Z,70.70
2017-09-06T00:52:37.557Z,70.70
2017-09-06T00:55:04.447Z,70.70
2017-09-06T00:57:31.525Z,70.90
2017-09-06T00:59:58.545Z,70.90
2017-09-06T01:02:25.536Z,70.70
2017-09-06T01:04:52.486Z,70.60
2017-09-06T01:07:19.379Z,70.60
2017-09-06T01:09:46.355Z,70.50
2017-09-06T01:12:13.278Z,70.30
2017-09-06T01:14:40.241Z,70.10
2017-09-06T01:17:07.112Z,70.00
2017-09-06T01:19:34.229Z,70.00
2017-09-06T01:22:01.195Z,69.60
2017-09-06T01:24:28.273Z,69.60
2017-09-06T01:26:55.865Z,69.70
2017-09-06T01:29:22.792Z,69.70
2017-09-06T01:31:49.718Z,69.40
2017-09-06T01:34:16.627Z,69.40
2017-09-06T01:36:43.569Z,68.90
2017-09-06T01:39:10.520Z,69.40
2017-09-06T01:41:37.527Z,69.30
2017-09-06T01:44:04.553Z,69.50
2017-09-06T01:46:32.244Z,69.40
2017-09-06T01:48:59.160Z,69.40
2017-09-06T01:51:26.108Z,70.00
2017-09-06T01:53:53.728Z,69.50
2017-09-06T01:56:20.612Z,69.40
2017-09-06T01:58:48.758Z,70.10
2017-09-06T02:01:15.686Z,70.00
2017-09-06T02:03:42.631Z,69.80
2017-09-06T02:06:09.624Z,69.80
2017-09-06T02:08:37.308Z,70.50
2017-09-06T02:11:04.941Z,69.70
2017-09-06T02:13:31.809Z,69.80
2017-09-06T02:15:58.830Z,69.80
2017-09-06T02:18:25.705Z,69.90
2017-09-06T02:20:53.317Z,69.90
2017-09-06T02:23:20.278Z,69.80
2017-09-06T02:25:47.225Z,69.80
2017-09-06T02:28:14.111Z,69.80
2017-09-06T02:30:41.114Z,69.90
2017-09-06T02:33:08.130Z,69.70
2017-09-06T02:35:35.039Z,69.70
2017-09-06T02:38:02.648Z,69.80
2017-09-06T02:40:29.678Z,69.80
2017-09-06T02:42:56.653Z,69.90
2017-09-06T02:45:23.592Z,69.80
2017-09-06T02:47:50.579Z,69.60
2017-09-06T02:50:18.304Z,70.70
2017-09-06T02:52:45.218Z,69.70
2017-09-06T02:55:12.193Z,69.80
2017-09-06T02:57:39.135Z,69.90
2017-09-06T03:00:06.042Z,69.80
2017-09-06T03:02:33.720Z,70.20
2017-09-06T03:05:00.628Z,70.20
2017-09-06T03:07:27.573Z,70.20
2017-09-06T03:09:54.479Z,70.10
2017-09-06T03:12:21.484Z,70.10
2017-09-06T03:14:49.100Z,70.20
2017-09-06T03:17:16.051Z,70.00
2017-09-06T03:19:43.062Z,70.00
2017-09-06T03:22:10.012Z,70.00
2017-09-06T03:24:36.992Z,70.00
2017-09-06T03:27:03.924Z,70.00
2017-09-06T03:29:30.913Z,69.70
2017-09-06T03:31:57.941Z,69.90
2017-09-06T03:34:24.832Z,69.90
2017-09-06T03:36:51.803Z,69.90
2017-09-06T03:39:18.700Z,69.60
2017-09-06T03:41:45.577Z,69.40
2017-09-06T03:44:12.540Z,69.50
2017-09-06T03:46:39.420Z,69.30
2017-09-06T03:49:06.299Z,69.50
2017-09-06T03:51:33.275Z,69.60
2017-09-06T03:54:00.160Z,69.60
2017-09-06T03:56:27.038Z,69.90
2017-09-06T03:58:53.992Z,69.90
2017-09-06T04:01:20.915Z,70.10
2017-09-06T04:03:48.550Z,70.10
2017-09-06T04:06:16.293Z,70.20
2017-09-06T04:08:43.221Z,70.20
2017-09-06T04:11:10.185Z,70.10
2017-09-06T04:13:37.057Z,69.90
2017-09-06T04:16:04.545Z,70.00
2017-09-06T04:18:32.248Z,70.60
2017-09-06T04:20:59.115Z,70.80
2017-09-06T04:23:26.014Z,70.20
2017-09-06T04:25:58.233Z,70.30
2017-09-06T04:28:26.377Z,70.70
2017-09-06T04:30:53.252Z,70.70
2017-09-06T04:33:20.162Z,70.80
2017-09-06T04:35:47.109Z,70.80
2017-09-06T04:38:13.976Z,70.90
2017-09-06T04:40:41.001Z,71.00
2017-09-06T04:43:07.963Z,71.20
2017-09-06T04:45:34.852Z,71.30
2017-09-06T04:48:01.821Z,71.60
2017-09-06T04:50:28.710Z,71.80
2017-09-06T04:52:55.724Z,71.90
2017-09-06T04:55:22.636Z,72.10
2017-09-06T04:57:50.269Z,72.40
2017-09-06T05:00:17.217Z,72.40
2017-09-06T05:02:44.116Z,72.40
2017-09-06T05:05:11.103Z,72.40
2017-09-06T05:07:40.789Z,72.50
2017-09-06T05:10:07.740Z,72.60
2017-09-06T05:12:34.644Z,72.60
2017-09-06T05:15:01.579Z,72.80
2017-09-06T05:17:28.526Z,72.90
2017-09-06T05:19:55.432Z,72.80
2017-09-06T05:22:22.393Z,72.70
2017-09-06T05:24:49.612Z,73.00
2017-09-06T05:27:16.496Z,73.20
2017-09-06T05:29:43.453Z,73.20
2017-09-06T05:32:10.427Z,73.20
2017-09-06T05:34:38.087Z,73.20
2017-09-06T05:37:05.754Z,73.60
2017-09-06T05:39:33.416Z,73.10
2017-09-06T05:42:00.384Z,72.90
2017-09-06T05:44:27.319Z,72.80
2017-09-06T05:46:55.017Z,72.60
2017-09-06T05:49:21.911Z,72.40
2017-09-06T05:51:49.609Z,72.70
2017-09-06T05:54:16.512Z,72.20
2017-09-06T05:56:43.474Z,71.70
2017-09-06T05:59:11.192Z,71.30
2017-09-06T06:01:38.108Z,71.20
2017-09-06T06:04:05.016Z,71.30
2017-09-06T06:06:31.960Z,71.20
2017-09-06T06:08:58.836Z,71.10
2017-09-06T06:11:25.850Z,70.90
2017-09-06T06:13:52.780Z,71.30
2017-09-06T06:16:19.674Z,71.70
2017-09-06T06:18:46.628Z,71.40
2017-09-06T06:21:13.571Z,71.20
2017-09-06T06:23:40.450Z,71.30
2017-09-06T06:26:07.328Z,71.00
2017-09-06T06:28:34.318Z,70.80
2017-09-06T06:31:01.198Z,70.70
2017-09-06T06:33:28.164Z,70.50
2017-09-06T06:35:55.080Z,70.10
2017-09-06T06:38:22.099Z,70.00
2017-09-06T06:40:51.463Z,69.40
2017-09-06T06:43:24.483Z,69.30
2017-09-06T06:45:51.908Z,68.70
2017-09-06T06:48:19.659Z,68.40
2017-09-06T06:50:46.616Z,68.40
2017-09-06T06:53:14.645Z,68.20
2017-09-06T06:55:41.537Z,67.10
2017-09-06T06:58:08.391Z,66.20
2017-09-06T07:00:35.379Z,65.40
2017-09-06T07:03:02.385Z,65.20
2017-09-06T07:05:30.656Z,65.10
2017-09-06T07:07:58.305Z,58.20
2017-09-06T07:10:25.286Z,58.20
2017-09-06T07:12:53.003Z,57.90
2017-09-06T07:15:20.107Z,57.80
2017-09-06T07:17:47.022Z,58.20
2017-09-06T07:20:14.019Z,58.90
2017-09-06T07:22:41.094Z,59.50
2017-09-06T07:25:07.995Z,59.40
2017-09-06T07:27:34.958Z,60.30
2017-09-06T07:30:01.882Z,60.60
2017-09-06T07:32:28.792Z,60.90
2017-09-06T07:34:55.744Z,60.90
2017-09-06T07:37:22.640Z,61.60
2017-09-06T07:39:49.616Z,61.90
2017-09-06T07:42:16.575Z,61.60
2017-09-06T07:44:43.555Z,64.30
2017-09-06T07:47:10.464Z,64.60
2017-09-06T07:49:37.437Z,65.50
2017-09-06T07:52:04.374Z,66.60
2017-09-06T07:54:31.279Z,65.60
2017-09-06T07:56:58.225Z,65.90
2017-09-06T07:59:25.136Z,66.70
2017-09-06T08:01:52.811Z,66.30
2017-09-06T08:04:19.824Z,66.20
2017-09-06T08:06:46.784Z,66.10
2017-09-06T08:09:14.508Z,65.10
2017-09-06T08:11:41.396Z,65.10
2017-09-06T08:14:08.408Z,64.60
2017-09-06T08:16:35.314Z,63.00
2017-09-06T08:19:02.252Z,59.70
2017-09-06T08:21:29.981Z,53.00
2017-09-06T08:23:56.980Z,53.00
2017-09-06T08:26:23.999Z,50.50
2017-09-06T08:28:51.752Z,48.30
2017-09-06T08:31:18.666Z,48.20
2017-09-06T08:33:45.621Z,47.80
2017-09-06T08:36:12.497Z,47.90
2017-09-06T08:38:40.262Z,45.70
2017-09-06T08:41:07.152Z,45.60
2017-09-06T08:43:34.056Z,46.00
2017-09-06T08:46:01.010Z,44.80
2017-09-06T08:48:28.646Z,41.20
2017-09-06T08:50:55.530Z,41.20
2017-09-06T08:53:22.534Z,40.60
2017-09-06T08:55:49.417Z,39.00
2017-09-06T08:58:17.045Z,37.80
2017-09-06T09:00:44.258Z,37.80
2017-09-06T09:03:11.150Z,38.20
2017-09-06T09:05:38.040Z,40.10
2017-09-06T09:08:05.029Z,43.40
2017-09-06T09:10:32.137Z,45.50
2017-09-06T09:12:59.152Z,46.40
2017-09-06T09:15:26.203Z,46.50
2017-09-06T09:17:53.158Z,47.80
2017-09-06T09:20:20.830Z,49.70
2017-09-06T09:22:47.780Z,49.70
2017-09-06T09:25:14.733Z,51.20
2017-09-06T09:27:41.772Z,50.00
2017-09-06T09:30:08.616Z,46.10
2017-09-06T09:32:35.664Z,46.70
2017-09-06T09:35:02.649Z,47.50
2017-09-06T09:37:29.585Z,49.10
2017-09-06T09:39:56.632Z,51.50
2017-09-06T09:42:23.617Z,55.00
2017-09-06T09:44:50.487Z,57.00
2017-09-06T09:47:17.530Z,58.30
2017-09-06T09:49:44.506Z,59.00
2017-09-06T09:52:11.456Z,57.50
2017-09-06T09:54:38.371Z,56.80
2017-09-06T09:57:06.192Z,54.90
2017-09-06T09:59:33.102Z,54.90
2017-09-06T10:02:00.057Z,53.70
2017-09-06T10:04:26.963Z,53.20
2017-09-06T10:06:54.024Z,53.10
2017-09-06T10:09:21.702Z,51.30
2017-09-06T10:11:48.606Z,51.20
2017-09-06T10:14:15.682Z,51.00
2017-09-06T10:16:43.363Z,50.70
2017-09-06T10:19:10.358Z,50.70
2017-09-06T10:21:37.367Z,51.10
2017-09-06T10:24:04.349Z,51.60
2017-09-06T10:26:31.384Z,52.40
2017-09-06T10:28:58.300Z,52.70
2017-09-06T10:31:25.192Z,52.20
2017-09-06T10:33:55.402Z,53.50
2017-09-06T10:36:23.152Z,54.00
2017-09-06T10:38:50.109Z,53.90
2017-09-06T10:41:17.771Z,54.00
2017-09-06T10:43:45.968Z,56.00
2017-09-06T10:46:15.532Z,56.60
2017-09-06T10:48:42.488Z,57.40
2017-09-06T10:51:09.704Z,60.80
2017-09-06T10:53:41.073Z,65.50
2017-09-06T10:56:07.988Z,65.10
2017-09-06T10:58:34.878Z,65.90
2017-09-06T11:01:13.003Z,66.20
2017-09-06T11:03:46.699Z,66.10
2017-09-06T11:06:13.872Z,66.00
2017-09-06T11:08:40.772Z,64.70
2017-09-06T11:11:07.664Z,64.20
2017-09-06T11:13:34.695Z,64.90
2017-09-06T11:16:01.684Z,64.50
2017-09-06T11:18:28.656Z,63.00
2017-09-06T11:20:56.253Z,62.20
2017-09-06T11:23:23.196Z,62.30
2017-09-06T11:25:50.080Z,60.60
2017-09-06T11:28:17.054Z,60.70
2017-09-06T11:30:43.972Z,58.10
2017-09-06T11:33:10.968Z,56.20
2017-09-06T11:35:37.947Z,54.70
2017-09-06T11:38:04.970Z,54.00
2017-09-06T11:40:31.948Z,53.80
2017-09-06T11:42:58.971Z,54.00
2017-09-06T11:45:25.883Z,54.40
2017-09-06T11:47:53.562Z,55.10
2017-09-06T11:50:20.556Z,55.10
2017-09-06T11:52:47.519Z,55.50
2017-09-06T11:55:14.524Z,55.20
2017-09-06T11:57:41.469Z,54.60
2017-09-06T12:00:08.418Z,54.60
2017-09-06T12:02:35.477Z,53.10
2017-09-06T12:05:02.353Z,53.30
2017-09-06T12:07:29.305Z,51.00
2017-09-06T12:09:56.324Z,50.30
2017-09-06T12:12:23.260Z,49.80
2017-09-06T12:14:50.234Z,48.20
2017-09-06T12:17:17.207Z,47.30
2017-09-06T12:19:44.149Z,46.80
2017-09-06T12:22:11.141Z,45.80
2017-09-06T12:24:38.076Z,47.00
2017-09-06T12:27:05.144Z,45.80
2017-09-06T12:29:32.065Z,44.40
2017-09-06T12:31:59.001Z,46.10
2017-09-06T12:34:25.882Z,44.10
2017-09-06T12:36:52.869Z,45.00
2017-09-06T12:39:20.684Z,44.10
2017-09-06T12:41:47.607Z,44.00
2017-09-06T12:44:14.506Z,44.30
2017-09-06T12:46:41.459Z,44.30
2017-09-06T12:49:08.448Z,43.70
2017-09-06T12:51:35.398Z,44.50
2017-09-06T12:54:03.268Z,45.60
2017-09-06T12:56:30.231Z,45.50
2017-09-06T12:58:57.142Z,43.80
2017-09-06T13:01:24.069Z,44.80
2017-09-06T13:03:51.050Z,45.20
2017-09-06T13:06:17.932Z,43.80
2017-09-06T13:08:44.905Z,44.20
2017-09-06T13:11:11.827Z,44.20
2017-09-06T13:13:38.693Z,44.50
2017-09-06T13:16:05.624Z,44.30
2017-09-06T13:18:32.546Z,43.80
2017-09-06T13:20:59.481Z,43.90
2017-09-06T13:23:26.365Z,43.60
2017-09-06T13:25:53.352Z,41.80
2017-09-06T13:28:20.260Z,41.80
2017-09-06T13:30:47.240Z,42.60
2017-09-06T13:33:14.845Z,41.50
2017-09-06T13:35:41.740Z,41.50
2017-09-06T13:38:09.554Z,42.50
2017-09-06T13:40:36.511Z,42.60
2017-09-06T13:43:03.504Z,40.60
2017-09-06T13:45:30.402Z,40.30
2017-09-06T13:47:57.278Z,41.50
2017-09-06T13:50:24.992Z,41.80
2017-09-06T13:52:51.897Z,41.90
2017-09-06T13:55:19.525Z,41.30
2017-09-06T13:57:46.482Z,41.40
2017-09-06T14:00:13.600Z,41.60
2017-09-06T14:02:43.155Z,41.90
2017-09-06T14:05:10.835Z,42.70
2017-09-06T14:07:38.520Z,42.70
2017-09-06T14:10:05.433Z,42.70
2017-09-06T14:12:33.115Z,43.20
2017-09-06T14:15:00.001Z,43.10
2017-09-06T14:17:26.872Z,43.50
2017-09-06T14:19:54.642Z,42.20
2017-09-06T14:22:22.269Z,41.00
2017-09-06T14:24:49.242Z,41.10
2017-09-06T14:27:16.151Z,41.50
2017-09-06T14:29:43.212Z,40.50
2017-09-06T14:32:10.177Z,41.70
2017-09-06T14:34:37.051Z,40.20
2017-09-06T14:37:04.720Z,40.10
2017-09-06T14:39:31.684Z,40.10
2017-09-06T14:41:58.631Z,40.70
2017-09-06T14:44:25.616Z,41.10
2017-09-06T14:46:52.721Z,41.20
2017-09-06T14:49:19.807Z,41.40
2017-09-06T14:51:46.997Z,41.60
2017-09-06T14:54:14.754Z,42.10
2017-09-06T14:56:41.697Z,42.10
2017-09-06T14:59:08.585Z,42.20
2017-09-06T15:01:35.465Z,41.80
2017-09-06T15:04:02.480Z,41.80
2017-09-06T15:06:29.409Z,42.10
2017-09-06T15:08:56.364Z,42.10
2017-09-06T15:11:23.250Z,41.50
2017-09-06T15:13:50.245Z,41.40
2017-09-06T15:16:17.329Z,41.10
2017-09-06T15:18:44.215Z,41.10
2017-09-06T15:21:11.152Z,40.90
2017-09-06T15:23:38.089Z,40.40
2017-09-06T15:26:05.058Z,41.40
2017-09-06T15:28:31.913Z,41.70
2017-09-06T15:30:59.536Z,40.70
2017-09-06T15:33:26.479Z,40.70
2017-09-06T15:35:53.420Z,40.30
2017-09-06T15:38:20.316Z,40.50
2017-09-06T15:40:47.999Z,41.10
2017-09-06T15:43:14.945Z,41.00
2017-09-06T15:45:41.955Z,41.20
2017-09-06T15:48:08.953Z,41.60
2017-09-06T15:50:35.869Z,41.00
2017-09-06T15:53:03.558Z,40.70
2017-09-06T15:55:30.520Z,40.70
2017-09-06T15:57:57.473Z,40.40
2017-09-06T16:00:24.395Z,40.80
2017-09-06T16:02:51.263Z,41.00
2017-09-06T16:05:18.268Z,41.00
2017-09-06T16:07:46.041Z,39.40
2017-09-06T16:10:12.912Z,39.40
2017-09-06T16:12:39.929Z,39.50
2017-09-06T16:15:06.817Z,39.50
2017-09-06T16:17:33.723Z,39.80
2017-09-06T16:20:00.735Z,39.20
2017-09-06T16:22:27.619Z,38.90
2017-09-06T16:24:54.542Z,38.80
2017-09-06T16:27:22.473Z,38.90
2017-09-06T16:29:49.464Z,38.90
2017-09-06T16:32:17.080Z,39.20
2017-09-06T16:34:44.058Z,39.20
2017-09-06T16:37:11.803Z,40.50
2017-09-06T16:39:38.705Z,39.70
2017-09-06T16:42:05.616Z,39.40
2017-09-06T16:44:33.348Z,40.00
2017-09-06T16:47:00.337Z,40.00
2017-09-06T16:49:27.984Z,40.50
2017-09-06T16:51:54.952Z,40.50
2017-09-06T16:54:22.669Z,41.60
2017-09-06T16:56:49.580Z,41.60
2017-09-06T16:59:16.555Z,41.80
2017-09-06T17:01:43.425Z,42.30
2017-09-06T17:04:10.384Z,42.60
2017-09-06T17:06:37.999Z,42.80
2017-09-06T17:09:04.952Z,42.80
2017-09-06T17:11:31.855Z,43.00
2017-09-06T17:13:59.604Z,43.20
2017-09-06T17:16:26.559Z,43.20
2017-09-06T17:18:54.188Z,43.40
2017-09-06T17:21:21.151Z,43.30
2017-09-06T17:23:48.059Z,43.30
2017-09-06T17:26:15.069Z,43.20
2017-09-06T17:28:41.980Z,43.60
2017-09-06T17:31:08.913Z,44.10
2017-09-06T17:33:35.882Z,43.50
2017-09-06T17:36:02.785Z,44.20
2017-09-06T17:38:29.789Z,44.20
2017-09-06T17:40:57.432Z,44.30
2017-09-06T17:43:25.110Z,44.40
2017-09-06T17:45:52.841Z,44.80
2017-09-06T17:48:19.720Z,44.80
2017-09-06T17:50:47.363Z,45.00
2017-09-06T17:53:14.366Z,45.00
2017-09-06T17:55:41.292Z,45.10
2017-09-06T17:58:08.270Z,45.50
2017-09-06T18:00:35.336Z,45.60
2017-09-06T18:03:02.219Z,45.70
2017-09-06T18:05:29.112Z,45.50
2017-09-06T18:07:56.045Z,45.90
2017-09-06T18:10:23.801Z,45.60
2017-09-06T18:12:50.742Z,45.90
2017-09-06T18:15:17.692Z,45.70
2017-09-06T18:17:44.708Z,45.80
2017-09-06T18:20:11.594Z,45.90
2017-09-06T18:22:38.553Z,46.00
2017-09-06T18:25:05.504Z,46.20
2017-09-06T18:27:32.376Z,46.40
2017-09-06T18:29:59.236Z,46.20
2017-09-06T18:32:26.203Z,46.30
2017-09-06T18:34:53.839Z,46.30
2017-09-06T18:37:20.719Z,46.30
2017-09-06T18:39:47.670Z,46.00
2017-09-06T18:42:14.553Z,46.10
2017-09-06T18:44:41.448Z,46.40
2017-09-06T18:47:08.392Z,46.40
2017-09-06T18:49:36.028Z,46.80
2017-09-06T18:52:02.984Z,46.60
2017-09-06T18:54:29.942Z,47.10
2017-09-06T18:56:57.647Z,47.50
2017-09-06T18:59:24.561Z,47.40
2017-09-06T19:01:51.500Z,47.80
2017-09-06T19:04:18.446Z,48.10
2017-09-06T19:06:46.082Z,48.40
2017-09-06T19:09:13.016Z,48.40
2017-09-06T19:11:40.060Z,48.70
2017-09-06T19:14:06.931Z,48.90
2017-09-06T19:16:33.795Z,49.20
2017-09-06T19:19:01.551Z,49.50
2017-09-06T19:21:28.444Z,49.50
2017-09-06T19:23:55.460Z,49.70
2017-09-06T19:26:22.356Z,50.10
2017-09-06T19:28:49.297Z,50.30
2017-09-06T19:31:16.356Z,50.80
2017-09-06T19:33:43.252Z,51.00
2017-09-06T19:36:10.173Z,51.10
2017-09-06T19:38:37.836Z,52.10
2017-09-06T19:41:04.708Z,51.40
2017-09-06T19:43:31.659Z,51.30
2017-09-06T19:45:58.529Z,51.50
2017-09-06T19:48:25.601Z,51.50
2017-09-06T19:50:52.531Z,51.90
2017-09-06T19:53:19.493Z,51.80
2017-09-06T19:55:46.465Z,51.80
2017-09-06T19:58:14.066Z,52.20
2017-09-06T20:00:41.120Z,52.00
2017-09-06T20:03:08.001Z,52.10
2017-09-06T20:05:34.901Z,52.00
2017-09-06T20:08:01.836Z,52.10
2017-09-06T20:10:28.712Z,52.30
2017-09-06T20:12:55.604Z,52.20
2017-09-06T20:15:22.553Z,52.30
2017-09-06T20:17:49.509Z,52.30
2017-09-06T20:20:16.467Z,52.60
2017-09-06T20:22:43.785Z,53.10
2017-09-06T20:25:11.487Z,53.10
2017-09-06T20:27:38.389Z,53.10
2017-09-06T20:30:05.374Z,53.30
2017-09-06T20:32:32.423Z,53.40
2017-09-06T20:34:59.312Z,53.50
2017-09-06T20:37:26.251Z,53.60
2017-09-06T20:39:53.210Z,53.50
2017-09-06T20:42:20.161Z,53.60
2017-09-06T20:44:47.035Z,53.70
2017-09-06T20:47:13.938Z,53.90
2017-09-06T20:49:40.935Z,54.20
2017-09-06T20:52:07.829Z,54.10
2017-09-06T20:54:34.794Z,54.20
2017-09-06T20:57:01.731Z,54.70
2017-09-06T20:59:28.732Z,54.10
2017-09-06T21:01:55.723Z,54.30
2017-09-06T21:04:22.720Z,54.40
2017-09-06T21:06:49.606Z,54.50
2017-09-06T21:09:16.482Z,54.70
2017-09-06T21:11:43.500Z,54.70
2017-09-06T21:14:10.446Z,54.70
2017-09-06T21:16:37.394Z,54.70
2017-09-06T21:19:04.337Z,55.10
2017-09-06T21:21:31.204Z,54.60
2017-09-06T21:23:58.084Z,54.60
2017-09-06T21:26:25.053Z,54.40
2017-09-06T21:28:51.999Z,54.10
2017-09-06T21:31:19.057Z,54.20
2017-09-06T21:33:46.390Z,54.30
2017-09-06T21:36:13.308Z,54.40
2017-09-06T21:38:40.933Z,54.40
2017-09-06T21:41:07.892Z,54.40
2017-09-06T21:43:34.776Z,54.40
2017-09-06T21:46:01.753Z,54.60
2017-09-06T21:48:28.683Z,54.50
2017-09-06T21:50:55.549Z,54.50
2017-09-06T21:53:22.591Z,54.30
2017-09-06T21:55:49.488Z,54.50
2017-09-06T21:58:16.425Z,54.40
2017-09-06T22:00:43.324Z,54.50
2017-09-06T22:03:10.300Z,54.70
2017-09-06T22:05:37.200Z,54.80
2017-09-06T22:08:04.159Z,54.80
2017-09-06T22:10:31.074Z,54.90
2017-09-06T22:12:57.982Z,55.10
2017-09-06T22:15:24.965Z,55.10
2017-09-06T22:17:52.627Z,55.70
2017-09-06T22:20:20.344Z,55.90
2017-09-06T22:22:47.298Z,55.90
2017-09-06T22:25:14.208Z,56.20
2017-09-06T22:27:41.163Z,56.20
2017-09-06T22:30:08.185Z,56.40
2017-09-06T22:32:35.796Z,56.80
2017-09-06T22:35:02.730Z,56.70
2017-09-06T22:37:29.597Z,57.10
2017-09-06T22:39:56.558Z,57.40
2017-09-06T22:42:23.428Z,57.40
2017-09-06T22:44:50.392Z,57.40
2017-09-06T22:47:17.355Z,57.80
2017-09-06T22:49:44.220Z,58.00
2017-09-06T22:52:11.112Z,58.20
2017-09-06T22:54:38.063Z,58.20
2017-09-06T22:57:05.108Z,58.20
2017-09-06T22:59:32.974Z,58.40
2017-09-06T23:02:00.590Z,58.40
2017-09-06T23:04:27.541Z,58.40
2017-09-06T23:06:54.469Z,58.60
2017-09-06T23:09:21.340Z,58.80
2017-09-06T23:11:48.318Z,58.80
2017-09-06T23:14:15.931Z,59.00
2017-09-06T23:16:47.192Z,58.90
2017-09-06T23:19:14.904Z,58.70
2017-09-06T23:21:41.838Z,58.60
2017-09-06T23:24:09.519Z,58.70
2017-09-06T23:26:36.387Z,58.70
2017-09-06T23:29:03.339Z,58.80
2017-09-06T23:31:30.229Z,58.70
2017-09-06T23:33:57.929Z,58.80
2017-09-06T23:36:24.795Z,58.70
2017-09-06T23:38:51.652Z,58.80
2017-09-06T23:41:18.600Z,58.80
2017-09-06T23:43:45.488Z,58.80
2017-09-06T23:46:12.358Z,58.90
2017-09-06T23:48:39.313Z,59.00
2017-09-06T23:51:06.197Z,59.30
2017-09-06T23:53:33.094Z,59.20
2017-09-06T23:56:00.020Z,59.20
2017-09-06T23:58:26.903Z,58.80
